This is the latest recevied weather packets stored in our database for station/object KB0Y. If no packets are shown the sender has not sent any weather packets the latest 10 day(s).
| Time | Temp. | Humidity | Pressure | Rain* | Wind** | Luminosity | Snow |
|---|---|---|---|---|---|---|---|
| 1777394673 | 25° C | 70% | 1026.8 hPa | 0 mm | - | 524 W/m² | - |
| 1777394369 | 25° C | 70% | 1026.5 hPa | 0 mm | - | 512 W/m² | - |
| 1777394066 | 25° C | 71% | 1026.5 hPa | 0 mm | - | 515 W/m² | - |
| 1777393761 | 24.44° C | 73% | 1026.5 hPa | 0 mm | - | 503 W/m² | - |
| 1777393461 | 25° C | 75% | 1026.2 hPa | 0 mm | - | 498 W/m² | - |
| 1777392854 | 24.44° C | 75% | 1026.2 hPa | 0 mm | - | 496 W/m² | - |
| 1777392549 | 24.44° C | 74% | 1026.2 hPa | 0 mm | - | 494 W/m² | - |
| 1777392245 | 24.44° C | 75% | 1026.2 hPa | 0 mm | - | 492 W/m² | - |
| 1777391332 | 23.89° C | 77% | 1026.2 hPa | 0 mm | - | 480 W/m² | - |
| 1777386474 | 20° C | 88% | 1026.2 hPa | 0 mm | - | 432 W/m² | - |
| 1777385862 | 19.44° C | 90% | 1025.8 hPa | 0 mm | - | 240 W/m² | - |
| 1777384952 | 18.89° C | 93% | 1025.5 hPa | 0 mm | - | 199 W/m² | - |
| 1777384650 | 18.33° C | 95% | 1025.5 hPa | 0 mm | - | 211 W/m² | - |
| 1777383438 | 17.78° C | 96% | 1025.8 hPa | 0 mm | - | 151 W/m² | - |
| 1777383134 | 17.78° C | 97% | 1025.8 hPa | 0 mm | - | 131 W/m² | - |
| 1777382831 | 17.78° C | 97% | 1025.8 hPa | 0 mm | - | 125 W/m² | - |
| 1777382527 | 17.78° C | 97% | 1025.5 hPa | 0 mm | - | 136 W/m² | - |
| 1777382223 | 17.78° C | 97% | 1025.5 hPa | 0 mm | - | 141 W/m² | - |
| 1777379493 | 16.11° C | 99% | 1024.8 hPa | 0 mm | - | 141 W/m² | - |
| 1777379188 | 15.56° C | 99% | 1025.1 hPa | 0 mm | - | 139 W/m² | - |
| 1777378883 | 15.56° C | 99% | 1025.1 hPa | 0 mm | - | 98 W/m² | - |
| 1777378580 | 15.56° C | 99% | 1025.1 hPa | 0 mm | - | 92 W/m² | - |
| 1777378276 | 15.56° C | 99% | 1025.5 hPa | 0 mm | - | 72 W/m² | - |
| 1777377974 | 15.56° C | 99% | 1025.5 hPa | 0 mm | - | 63 W/m² | - |
| 1777377061 | 15° C | 99% | 1025.5 hPa | 0 mm | - | 52 W/m² | - |
* Rain latest hour (hover to see other rain measurements)
** Current wind speed in m/s (hover to see current wind gust speed)